createdAt,value
2019-04-03T04:01:57.921Z,73.49
2019-04-03T04:02:58.096Z,73.24
2019-04-03T04:03:58.320Z,73.49
2019-04-03T04:04:58.441Z,73.97
2019-04-03T04:05:58.996Z,72.75
2019-04-03T04:07:02.225Z,73.73
2019-04-03T04:07:58.981Z,73.24
2019-04-03T04:08:59.126Z,73.24
2019-04-03T04:09:59.299Z,73.97
2019-04-03T04:10:59.982Z,75.20
2019-04-03T04:11:59.922Z,75.68
2019-04-03T04:13:00.006Z,74.46
2019-04-03T04:13:59.985Z,75.20
2019-04-03T04:15:00.161Z,75.44
2019-04-03T04:16:03.918Z,74.95
2019-04-03T04:17:00.503Z,75.44
2019-04-03T04:18:00.672Z,76.17
2019-04-03T04:19:01.012Z,74.71
2019-04-03T04:20:05.225Z,74.95
2019-04-03T04:21:01.639Z,75.93
2019-04-03T04:22:01.362Z,76.66
2019-04-03T04:23:01.826Z,74.46
2019-04-03T04:24:01.935Z,75.93
2019-04-03T04:25:01.970Z,75.68
2019-04-03T04:26:02.521Z,76.17
2019-04-03T04:27:03.202Z,75.44
2019-04-03T04:28:02.417Z,74.95
2019-04-03T04:29:02.583Z,75.68
2019-04-03T04:30:02.871Z,74.46
2019-04-03T04:31:02.925Z,73.49
2019-04-03T04:32:03.101Z,74.22
2019-04-03T04:33:03.271Z,73.24
2019-04-03T04:34:03.445Z,75.93
2019-04-03T04:35:03.649Z,74.46
2019-04-03T04:36:03.787Z,73.49
2019-04-03T04:37:04.030Z,72.75
2019-04-03T04:38:04.140Z,74.46
2019-04-03T04:39:04.326Z,74.22
2019-04-03T04:40:04.469Z,76.17
2019-04-03T04:41:04.818Z,73.24
2019-04-03T04:42:04.815Z,73.24
2019-04-03T04:43:07.458Z,82.28
2019-04-03T04:44:05.157Z,73.97
2019-04-03T04:45:05.332Z,74.22
2019-04-03T04:46:05.502Z,73.73
2019-04-03T04:47:05.674Z,73.97
2019-04-03T04:48:05.844Z,72.75
2019-04-03T04:49:06.027Z,75.44
2019-04-03T04:50:06.411Z,73.49
2019-04-03T04:51:06.373Z,73.24
2019-04-03T04:52:06.693Z,73.00
2019-04-03T04:53:06.716Z,73.49
2019-04-03T04:54:06.890Z,74.22
2019-04-03T04:55:07.061Z,73.49
2019-04-03T04:56:07.428Z,73.49
2019-04-03T04:57:08.888Z,72.75
2019-04-03T04:58:07.584Z,73.49
2019-04-03T04:59:07.918Z,73.24
2019-04-03T05:00:07.927Z,73.24
2019-04-03T05:01:08.102Z,73.24
2019-04-03T05:02:08.273Z,73.24
2019-04-03T05:03:08.738Z,73.49
2019-04-03T05:04:08.615Z,73.24
2019-04-03T05:05:09.215Z,72.75
2019-04-03T05:06:09.010Z,73.73
2019-04-03T05:07:09.337Z,73.97
2019-04-03T05:08:09.305Z,75.93
2019-04-03T05:09:09.476Z,74.46
2019-04-03T05:10:09.647Z,73.00
2019-04-03T05:11:09.819Z,73.24
2019-04-03T05:12:10.355Z,73.00
2019-04-03T05:13:10.161Z,72.51
2019-04-03T05:14:10.334Z,74.22
2019-04-03T05:15:10.506Z,74.22
2019-04-03T05:16:10.677Z,74.71
2019-04-03T05:17:10.980Z,73.00
2019-04-03T05:18:11.079Z,73.00
2019-04-03T05:19:17.895Z,73.97
2019-04-03T05:20:11.366Z,73.49
2019-04-03T05:21:11.536Z,72.75
2019-04-03T05:22:11.708Z,73.73
2019-04-03T05:23:11.879Z,74.71
2019-04-03T05:24:13.711Z,73.97
2019-04-03T05:25:12.227Z,75.20
2019-04-03T05:26:12.398Z,73.00
2019-04-03T05:27:12.571Z,72.27
2019-04-03T05:28:12.743Z,72.51
2019-04-03T05:29:12.914Z,74.46
2019-04-03T05:30:13.106Z,72.51
2019-04-03T05:31:13.279Z,73.00
2019-04-03T05:32:13.451Z,73.73
2019-04-03T05:33:13.679Z,73.00
2019-04-03T05:34:14.085Z,74.46
2019-04-03T05:35:14.942Z,74.22
2019-04-03T05:36:17.075Z,74.95
2019-04-03T05:37:14.315Z,74.22
2019-04-03T05:38:14.577Z,73.49
2019-04-03T05:39:14.743Z,74.46
2019-04-03T05:40:14.834Z,73.97
2019-04-03T05:41:15.039Z,73.00
2019-04-03T05:42:15.178Z,73.73
2019-04-03T05:43:15.352Z,73.49
2019-04-03T05:44:15.521Z,73.00
2019-04-03T05:45:15.790Z,72.27
2019-04-03T05:46:16.766Z,74.46
2019-04-03T05:47:16.052Z,73.00
2019-04-03T05:48:17.658Z,73.73
2019-04-03T05:49:18.611Z,74.95
2019-04-03T05:50:16.612Z,73.00
2019-04-03T05:51:16.923Z,73.24
2019-04-03T05:52:17.101Z,72.27
2019-04-03T05:53:17.080Z,74.71
2019-04-03T05:54:17.252Z,73.24
2019-04-03T05:55:17.434Z,78.13
2019-04-03T05:56:17.599Z,73.97
2019-04-03T05:57:17.770Z,73.49
2019-04-03T05:58:17.952Z,74.71
2019-04-03T05:59:18.125Z,72.51
2019-04-03T06:00:18.402Z,73.00
2019-04-03T06:01:18.474Z,73.49
2019-04-03T06:02:21.377Z,73.00
2019-04-03T06:03:18.983Z,72.51
2019-04-03T06:04:18.985Z,73.00
2019-04-03T06:05:19.601Z,74.46
2019-04-03T06:06:19.329Z,74.95
2019-04-03T06:07:19.501Z,74.71
2019-04-03T06:08:20.031Z,73.97
2019-04-03T06:09:20.086Z,73.49
2019-04-03T06:10:20.025Z,73.24
2019-04-03T06:11:20.841Z,73.00
2019-04-03T06:12:20.367Z,72.75
2019-04-03T06:13:20.550Z,73.24
2019-04-03T06:14:23.090Z,74.22
2019-04-03T06:15:22.055Z,73.24
2019-04-03T06:16:23.419Z,73.49
2019-04-03T06:17:21.228Z,73.49
2019-04-03T06:18:21.397Z,73.24
2019-04-03T06:19:21.571Z,73.97
2019-04-03T06:20:21.751Z,73.49
2019-04-03T06:21:21.923Z,73.24
2019-04-03T06:22:22.195Z,73.24
2019-04-03T06:23:22.242Z,74.46
2019-04-03T06:24:24.406Z,73.49
2019-04-03T06:25:22.990Z,73.73
2019-04-03T06:26:22.782Z,73.49
2019-04-03T06:27:22.942Z,72.75
2019-04-03T06:28:23.107Z,73.49
2019-04-03T06:29:23.487Z,73.73
2019-04-03T06:30:25.030Z,77.15
2019-04-03T06:31:24.347Z,73.49
2019-04-03T06:32:24.928Z,73.97
2019-04-03T06:33:23.977Z,73.24
2019-04-03T06:34:24.152Z,72.51
2019-04-03T06:35:24.321Z,72.75
2019-04-03T06:36:24.506Z,74.46
2019-04-03T06:37:24.669Z,73.73
2019-04-03T06:38:25.215Z,73.24
2019-04-03T06:39:30.461Z,73.49
2019-04-03T06:40:25.346Z,75.68
2019-04-03T06:41:25.353Z,73.49
2019-04-03T06:42:25.525Z,74.22
2019-04-03T06:43:25.700Z,73.24
2019-04-03T06:44:26.120Z,76.90
2019-04-03T06:45:27.021Z,73.73
2019-04-03T06:46:28.454Z,73.24
2019-04-03T06:47:26.402Z,74.22
2019-04-03T06:48:26.574Z,74.46
2019-04-03T06:49:26.755Z,73.24
2019-04-03T06:50:26.922Z,73.24
2019-04-03T06:51:27.093Z,72.75
2019-04-03T06:52:27.509Z,73.97
2019-04-03T06:53:28.680Z,75.20
2019-04-03T06:54:27.819Z,73.97
2019-04-03T06:55:27.954Z,73.24
2019-04-03T06:56:28.039Z,73.73
2019-04-03T06:57:28.142Z,72.75
2019-04-03T06:58:37.361Z,74.22
2019-04-03T06:59:28.483Z,73.00
2019-04-03T07:00:28.871Z,73.73
2019-04-03T07:01:28.827Z,75.44
2019-04-03T07:02:31.420Z,74.71
2019-04-03T07:03:29.173Z,73.73
2019-04-03T07:04:29.348Z,74.95
2019-04-03T07:05:29.519Z,73.00
2019-04-03T07:06:29.690Z,73.97
2019-04-03T07:07:34.136Z,73.24
2019-04-03T07:08:34.850Z,73.24
2019-04-03T07:09:35.602Z,76.17
2019-04-03T07:10:30.388Z,74.22
2019-04-03T07:11:30.561Z,73.00
2019-04-03T07:12:30.778Z,73.97
2019-04-03T07:13:30.905Z,73.24
2019-04-03T07:14:31.133Z,73.24
2019-04-03T07:15:31.248Z,73.49
2019-04-03T07:16:31.434Z,73.97
2019-04-03T07:17:32.839Z,73.49
2019-04-03T07:18:31.762Z,75.20
2019-04-03T07:19:32.180Z,73.24
2019-04-03T07:20:32.107Z,73.00
2019-04-03T07:21:32.467Z,73.97
2019-04-03T07:22:32.454Z,73.24
2019-04-03T07:23:32.678Z,73.24
2019-04-03T07:24:32.897Z,73.49
2019-04-03T07:25:33.930Z,73.97
2019-04-03T07:26:35.131Z,74.22
2019-04-03T07:27:34.895Z,73.97
2019-04-03T07:28:33.490Z,75.44
2019-04-03T07:29:33.974Z,74.71
2019-04-03T07:30:33.845Z,72.75
2019-04-03T07:31:34.016Z,72.75
2019-04-03T07:32:34.188Z,74.46
2019-04-03T07:33:34.360Z,73.24
2019-04-03T07:34:34.674Z,74.71
2019-04-03T07:35:34.950Z,73.00
2019-04-03T07:36:34.877Z,75.44
2019-04-03T07:37:35.090Z,73.00
2019-04-03T07:38:35.455Z,73.49
2019-04-03T07:39:35.397Z,73.24
2019-04-03T07:40:35.568Z,74.71
2019-04-03T07:41:35.739Z,75.20
2019-04-03T07:42:35.914Z,74.71
2019-04-03T07:43:36.094Z,73.00
2019-04-03T07:44:36.261Z,73.00
2019-04-03T07:45:36.430Z,75.68
2019-04-03T07:46:36.605Z,73.97
2019-04-03T07:47:36.782Z,78.37
2019-04-03T07:48:37.954Z,73.00
2019-04-03T07:49:37.689Z,74.71
2019-04-03T07:50:37.292Z,73.00
2019-04-03T07:51:37.470Z,75.44
2019-04-03T07:52:37.640Z,74.46
2019-04-03T07:53:37.809Z,73.97
2019-04-03T07:54:38.130Z,74.71
2019-04-03T07:55:38.158Z,73.73
2019-04-03T07:56:38.343Z,74.71
2019-04-03T07:57:40.929Z,74.71
2019-04-03T07:58:38.678Z,73.73
2019-04-03T07:59:38.848Z,73.49
2019-04-03T08:00:39.269Z,74.46
2019-04-03T08:01:41.306Z,73.24
2019-04-03T08:02:39.364Z,73.49
2019-04-03T08:03:39.539Z,73.00
2019-04-03T08:04:39.972Z,73.73
2019-04-03T08:05:39.888Z,72.27
2019-04-03T08:06:40.211Z,73.00
2019-04-03T08:07:40.440Z,77.39
2019-04-03T08:08:40.399Z,75.68
2019-04-03T08:09:40.570Z,74.71
2019-04-03T08:10:40.744Z,75.44
2019-04-03T08:11:41.038Z,77.64
2019-04-03T08:12:41.088Z,73.73
2019-04-03T08:13:41.319Z,72.75
2019-04-03T08:14:42.002Z,73.49
2019-04-03T08:15:43.889Z,73.49
2019-04-03T08:16:43.196Z,74.22
2019-04-03T08:17:41.984Z,73.97
2019-04-03T08:18:42.125Z,73.73
2019-04-03T08:19:44.933Z,75.44
2019-04-03T08:20:42.472Z,73.73
2019-04-03T08:21:42.645Z,74.22
2019-04-03T08:22:42.819Z,73.49
2019-04-03T08:23:42.992Z,73.49
2019-04-03T08:24:43.165Z,74.22
2019-04-03T08:25:47.142Z,73.73
2019-04-03T08:26:43.512Z,73.97
2019-04-03T08:27:43.837Z,73.97
2019-04-03T08:28:43.861Z,74.46
2019-04-03T08:29:44.032Z,74.46
2019-04-03T08:30:44.248Z,74.46
2019-04-03T08:31:48.264Z,73.73
2019-04-03T08:32:47.370Z,73.49
2019-04-03T08:33:44.726Z,73.00
2019-04-03T08:34:44.903Z,73.24
2019-04-03T08:35:45.320Z,73.73
2019-04-03T08:36:45.244Z,73.00
2019-04-03T08:37:45.644Z,73.00
2019-04-03T08:38:45.772Z,74.46
2019-04-03T08:39:48.436Z,73.49
2019-04-03T08:40:45.943Z,73.24
2019-04-03T08:41:46.396Z,73.97
2019-04-03T08:42:46.321Z,76.90
2019-04-03T08:43:46.440Z,73.00
2019-04-03T08:44:46.615Z,74.46
2019-04-03T08:45:46.790Z,73.49
2019-04-03T08:46:46.965Z,73.49
2019-04-03T08:47:47.139Z,73.97
2019-04-03T08:48:47.431Z,75.68
2019-04-03T08:49:47.660Z,73.73
2019-04-03T08:50:47.654Z,73.24
2019-04-03T08:51:47.830Z,73.97
2019-04-03T08:52:48.004Z,73.73
2019-04-03T08:53:48.198Z,73.73
2019-04-03T08:54:48.349Z,73.73
2019-04-03T08:55:48.611Z,74.46
2019-04-03T08:56:49.429Z,73.73
2019-04-03T08:57:51.891Z,73.24
2019-04-03T08:58:49.265Z,75.20
2019-04-03T08:59:49.550Z,73.00
2019-04-03T09:00:49.389Z,74.22
2019-04-03T09:01:49.559Z,73.97
2019-04-03T09:02:49.734Z,73.73
2019-04-03T09:03:49.910Z,73.97
2019-04-03T09:04:50.084Z,74.22
2019-04-03T09:05:51.050Z,73.24
2019-04-03T09:06:53.107Z,74.46
2019-04-03T09:07:50.801Z,73.49
2019-04-03T09:08:50.780Z,74.22
2019-04-03T09:09:51.029Z,73.49
2019-04-03T09:10:51.397Z,76.90
2019-04-03T09:11:51.296Z,73.73
2019-04-03T09:12:51.469Z,73.97
2019-04-03T09:13:54.373Z,73.24
2019-04-03T09:14:51.818Z,74.22
2019-04-03T09:15:52.191Z,73.73
2019-04-03T09:16:52.174Z,74.22
2019-04-03T09:17:52.341Z,75.68
2019-04-03T09:18:52.518Z,73.24
2019-04-03T09:19:52.965Z,73.24
2019-04-03T09:20:52.867Z,73.97
2019-04-03T09:21:53.086Z,74.71
2019-04-03T09:22:54.391Z,72.51
2019-04-03T09:23:55.183Z,73.73
2019-04-03T09:24:53.560Z,74.71
2019-04-03T09:25:54.004Z,73.24
2019-04-03T09:26:54.231Z,72.75
2019-04-03T09:27:54.082Z,74.22
2019-04-03T09:28:54.254Z,72.51
2019-04-03T09:29:54.428Z,73.49
2019-04-03T09:30:54.600Z,74.46
2019-04-03T09:31:56.233Z,74.46
2019-04-03T09:32:55.223Z,73.24
2019-04-03T09:33:56.984Z,75.93
2019-04-03T09:34:55.295Z,72.75
2019-04-03T09:35:58.498Z,73.00
2019-04-03T09:36:55.646Z,72.51
2019-04-03T09:37:55.896Z,73.24
2019-04-03T09:38:55.990Z,73.24
2019-04-03T09:39:56.165Z,73.24
2019-04-03T09:40:56.339Z,72.75
2019-04-03T09:41:56.516Z,72.27
2019-04-03T09:42:56.688Z,73.49
2019-04-03T09:43:56.862Z,73.49
2019-04-03T09:44:57.393Z,73.73
2019-04-03T09:45:59.397Z,73.49
2019-04-03T09:46:57.444Z,75.93
2019-04-03T09:47:57.572Z,74.71
2019-04-03T09:48:57.997Z,72.27
2019-04-03T09:49:57.956Z,73.24
2019-04-03T09:50:58.096Z,73.97
2019-04-03T09:51:58.267Z,73.73
2019-04-03T09:52:58.443Z,72.02
2019-04-03T09:53:58.617Z,70.80
2019-04-03T09:55:00.292Z,73.97
2019-04-03T09:55:59.085Z,71.78
2019-04-03T09:57:04.474Z,70.80
2019-04-03T09:57:59.313Z,70.56
2019-04-03T09:58:59.485Z,71.04
2019-04-03T09:59:59.662Z,71.78
2019-04-03T10:00:59.837Z,72.02
2019-04-03T10:02:00.174Z,71.04
2019-04-03T10:03:00.187Z,74.22
2019-04-03T10:04:00.363Z,72.27
2019-04-03T10:05:00.536Z,73.97
2019-04-03T10:06:00.853Z,71.04
2019-04-03T10:07:02.028Z,71.04
2019-04-03T10:08:01.059Z,71.04
2019-04-03T10:09:01.231Z,72.51
2019-04-03T10:10:01.832Z,71.78
2019-04-03T10:11:01.583Z,74.95
2019-04-03T10:12:02.044Z,74.71
2019-04-03T10:13:02.080Z,71.29
2019-04-03T10:14:02.109Z,74.95
2019-04-03T10:15:02.281Z,73.49
2019-04-03T10:16:03.957Z,74.46
2019-04-03T10:17:03.900Z,72.02
2019-04-03T10:18:03.054Z,72.27
2019-04-03T10:19:02.979Z,72.75
2019-04-03T10:20:03.155Z,75.44
2019-04-03T10:21:03.349Z,76.42
2019-04-03T10:22:03.511Z,73.00
2019-04-03T10:23:03.676Z,71.53
2019-04-03T10:24:03.849Z,71.29
2019-04-03T10:25:05.499Z,72.02
2019-04-03T10:26:05.921Z,69.58
2019-04-03T10:27:04.373Z,70.31
2019-04-03T10:28:04.547Z,70.31
2019-04-03T10:29:04.854Z,71.78
2019-04-03T10:30:05.225Z,70.80
2019-04-03T10:31:05.070Z,73.00
2019-04-03T10:32:05.248Z,70.31
2019-04-03T10:33:05.636Z,69.58
2019-04-03T10:34:05.596Z,70.80
2019-04-03T10:35:07.290Z,72.02
2019-04-03T10:36:05.945Z,70.07
2019-04-03T10:37:06.127Z,71.78
2019-04-03T10:38:06.340Z,70.07
2019-04-03T10:39:06.472Z,72.02
2019-04-03T10:40:06.904Z,71.78
2019-04-03T10:41:06.818Z,73.24
2019-04-03T10:42:06.996Z,73.24
2019-04-03T10:43:07.163Z,72.27
2019-04-03T10:44:09.292Z,74.22
2019-04-03T10:45:07.512Z,71.78
2019-04-03T10:46:07.690Z,75.68
2019-04-03T10:47:07.952Z,72.75
2019-04-03T10:48:08.038Z,73.00
2019-04-03T10:49:08.503Z,72.75
2019-04-03T10:50:08.388Z,74.22
2019-04-03T10:51:09.301Z,72.02
2019-04-03T10:52:08.733Z,72.02
2019-04-03T10:53:08.908Z,75.20
2019-04-03T10:54:09.083Z,72.51
2019-04-03T10:55:09.261Z,73.97
2019-04-03T10:56:09.429Z,71.78
2019-04-03T10:57:09.711Z,72.27
2019-04-03T10:58:09.914Z,74.46
2019-04-03T10:59:12.993Z,73.73
2019-04-03T11:00:10.216Z,74.46
2019-04-03T11:01:10.298Z,72.51
2019-04-03T11:02:10.469Z,73.24
2019-04-03T11:03:10.889Z,72.75
2019-04-03T11:04:11.079Z,72.75
2019-04-03T11:05:10.996Z,76.42
2019-04-03T11:06:11.308Z,73.49
2019-04-03T11:07:11.341Z,72.51
2019-04-03T11:08:11.540Z,72.02
2019-04-03T11:09:11.689Z,72.02
2019-04-03T11:10:11.960Z,73.49
2019-04-03T11:11:12.033Z,72.75
2019-04-03T11:12:12.582Z,72.27
2019-04-03T11:13:12.380Z,72.27
2019-04-03T11:14:12.553Z,72.02
2019-04-03T11:15:12.820Z,73.49
2019-04-03T11:16:13.181Z,72.51
2019-04-03T11:17:13.348Z,73.49
2019-04-03T11:18:13.248Z,72.51
2019-04-03T11:19:13.420Z,73.00
2019-04-03T11:20:14.061Z,73.49
2019-04-03T11:21:13.766Z,72.75
2019-04-03T11:22:16.267Z,72.02
2019-04-03T11:23:14.202Z,72.75
2019-04-03T11:24:14.675Z,72.51
2019-04-03T11:25:15.937Z,75.44
2019-04-03T11:26:17.644Z,72.75
2019-04-03T11:27:15.298Z,72.51
2019-04-03T11:28:14.993Z,73.00
2019-04-03T11:29:15.192Z,73.49
2019-04-03T11:30:19.032Z,73.24
2019-04-03T11:31:25.940Z,74.95
2019-04-03T11:32:15.678Z,72.51
2019-04-03T11:33:15.936Z,72.51
2019-04-03T11:34:18.028Z,74.46
2019-04-03T11:35:16.407Z,72.02
2019-04-03T11:36:16.543Z,71.78
2019-04-03T11:37:16.552Z,72.75
2019-04-03T11:38:26.286Z,72.27
2019-04-03T11:39:16.922Z,72.27
2019-04-03T11:40:18.150Z,73.49
2019-04-03T11:41:19.596Z,72.02
2019-04-03T11:42:24.040Z,73.49
2019-04-03T11:43:17.595Z,72.51
2019-04-03T11:44:17.856Z,71.53
2019-04-03T11:45:18.167Z,72.51
2019-04-03T11:46:18.114Z,74.71
2019-04-03T11:47:18.289Z,73.97
2019-04-03T11:48:18.467Z,73.00
2019-04-03T11:49:20.038Z,71.53
2019-04-03T11:50:18.809Z,72.75
2019-04-03T11:51:18.983Z,75.44
2019-04-03T11:52:19.158Z,73.49
2019-04-03T11:53:19.329Z,72.02
2019-04-03T11:54:19.588Z,73.00
2019-04-03T11:55:19.889Z,73.00
2019-04-03T11:56:19.857Z,73.24
2019-04-03T11:57:20.023Z,72.27
2019-04-03T11:58:21.314Z,71.53
2019-04-03T11:59:22.711Z,71.53
2019-04-03T12:00:20.893Z,73.73
2019-04-03T12:01:20.786Z,73.49
2019-04-03T12:02:20.894Z,71.78
2019-04-03T12:03:21.067Z,72.27
2019-04-03T12:04:21.284Z,72.27
2019-04-03T12:05:21.635Z,72.51
2019-04-03T12:06:21.958Z,72.27
2019-04-03T12:07:22.873Z,73.24
2019-04-03T12:08:21.931Z,73.49
2019-04-03T12:09:22.107Z,72.51
2019-04-03T12:10:24.899Z,73.73
2019-04-03T12:11:22.682Z,73.49
2019-04-03T12:12:22.651Z,73.73
2019-04-03T12:13:22.870Z,72.27
2019-04-03T12:14:22.973Z,72.02
2019-04-03T12:15:23.144Z,72.02
2019-04-03T12:16:25.222Z,73.97
2019-04-03T12:17:23.492Z,73.49
2019-04-03T12:18:24.039Z,70.80
2019-04-03T12:19:23.926Z,67.14
2019-04-03T12:20:24.054Z,73.00
2019-04-03T12:21:24.506Z,66.89
2019-04-03T12:22:24.360Z,71.29
2019-04-03T12:23:26.913Z,66.65
2019-04-03T12:24:25.109Z,65.67
2019-04-03T12:25:25.237Z,68.85
2019-04-03T12:26:25.365Z,67.63
2019-04-03T12:27:25.246Z,70.31
2019-04-03T12:28:25.414Z,70.31
2019-04-03T12:29:25.591Z,69.82
2019-04-03T12:30:26.857Z,70.56
2019-04-03T12:31:25.944Z,66.65
2019-04-03T12:32:36.641Z,68.36
2019-04-03T12:33:26.568Z,69.58
2019-04-03T12:34:26.461Z,71.29
2019-04-03T12:35:26.639Z,61.04
2019-04-03T12:36:27.810Z,67.63
2019-04-03T12:37:26.991Z,63.96
2019-04-03T12:38:27.173Z,69.82
2019-04-03T12:39:28.095Z,67.14
2019-04-03T12:40:27.524Z,66.89
2019-04-03T12:41:28.011Z,69.58
2019-04-03T12:42:27.901Z,66.65
2019-04-03T12:43:28.050Z,67.14
2019-04-03T12:44:28.226Z,70.31
2019-04-03T12:45:28.405Z,66.16
2019-04-03T12:46:28.580Z,67.14
2019-04-03T12:47:28.755Z,64.70
2019-04-03T12:48:29.244Z,67.63
2019-04-03T12:49:29.108Z,65.67
2019-04-03T12:50:29.286Z,74.22
2019-04-03T12:51:31.570Z,67.63
2019-04-03T12:52:29.763Z,70.80
2019-04-03T12:53:30.242Z,65.92
2019-04-03T12:54:30.214Z,71.53
2019-04-03T12:55:30.296Z,69.09
2019-04-03T12:56:30.953Z,64.21
2019-04-03T12:57:32.390Z,69.09
2019-04-03T12:58:31.084Z,68.12
2019-04-03T12:59:30.882Z,64.21
2019-04-03T13:00:31.057Z,72.27
2019-04-03T13:01:31.233Z,66.65
2019-04-03T13:02:31.519Z,65.92
2019-04-03T13:03:31.965Z,73.00
2019-04-03T13:04:32.807Z,66.16
2019-04-03T13:05:32.278Z,64.21
2019-04-03T13:06:32.522Z,65.19
2019-04-03T13:07:32.853Z,63.48
2019-04-03T13:08:32.863Z,67.38
2019-04-03T13:09:33.025Z,68.85
2019-04-03T13:10:40.974Z,69.09
2019-04-03T13:11:33.970Z,74.95
2019-04-03T13:12:33.769Z,74.95
2019-04-03T13:13:33.732Z,67.14
2019-04-03T13:14:33.579Z,63.48
2019-04-03T13:15:36.240Z,72.51
2019-04-03T13:16:33.877Z,72.02
2019-04-03T13:17:34.050Z,67.87
2019-04-03T13:18:34.225Z,69.09
2019-04-03T13:19:34.399Z,72.51
2019-04-03T13:20:36.673Z,65.67
2019-04-03T13:21:34.975Z,69.09
2019-04-03T13:22:34.926Z,74.46
2019-04-03T13:23:35.570Z,69.09
2019-04-03T13:24:35.275Z,66.16
2019-04-03T13:25:35.450Z,68.85
2019-04-03T13:26:35.928Z,66.16
2019-04-03T13:27:36.125Z,66.89
2019-04-03T13:28:39.488Z,70.31
2019-04-03T13:29:38.313Z,63.96
2019-04-03T13:30:36.324Z,70.56
2019-04-03T13:31:36.494Z,63.48
2019-04-03T13:32:37.057Z,71.04
2019-04-03T13:33:38.724Z,68.36
2019-04-03T13:34:37.203Z,67.38
2019-04-03T13:35:37.193Z,70.31
2019-04-03T13:36:37.735Z,68.12
2019-04-03T13:37:37.717Z,69.82
2019-04-03T13:38:38.138Z,68.85
2019-04-03T13:39:38.305Z,69.34
2019-04-03T13:40:39.038Z,70.31
2019-04-03T13:41:39.968Z,64.94
2019-04-03T13:42:38.681Z,66.65
2019-04-03T13:43:38.992Z,66.41
2019-04-03T13:44:38.768Z,66.16
2019-04-03T13:45:39.039Z,68.12
2019-04-03T13:46:39.116Z,68.12
2019-04-03T13:47:41.500Z,67.14
2019-04-03T13:48:39.693Z,67.87
2019-04-03T13:49:39.920Z,68.60
2019-04-03T13:50:40.152Z,71.29
2019-04-03T13:51:39.988Z,69.09
2019-04-03T13:52:43.605Z,66.16
2019-04-03T13:53:40.336Z,64.70
2019-04-03T13:54:40.511Z,71.29
2019-04-03T13:55:40.846Z,65.92
2019-04-03T13:56:43.104Z,68.12
2019-04-03T13:57:41.033Z,67.87
2019-04-03T13:58:41.645Z,74.95
2019-04-03T13:59:41.527Z,72.02
2019-04-03T14:00:41.560Z,73.97
2019-04-03T14:01:41.817Z,72.51
2019-04-03T14:02:45.009Z,70.31
2019-04-03T14:03:42.124Z,65.92
2019-04-03T14:04:42.348Z,68.12
2019-04-03T14:05:43.453Z,69.34
2019-04-03T14:06:42.975Z,70.80
2019-04-03T14:07:42.794Z,66.16
2019-04-03T14:08:45.088Z,66.16
2019-04-03T14:09:43.143Z,66.89
2019-04-03T14:10:43.319Z,63.72
2019-04-03T14:11:43.499Z,63.96
2019-04-03T14:12:45.182Z,63.48
2019-04-03T14:13:44.428Z,68.12
2019-04-03T14:14:45.243Z,67.63
2019-04-03T14:15:44.199Z,70.07
2019-04-03T14:16:44.403Z,66.89
2019-04-03T14:17:55.317Z,63.48
2019-04-03T14:18:44.731Z,68.36
2019-04-03T14:19:48.429Z,64.21
2019-04-03T14:20:45.089Z,64.45
2019-04-03T14:21:45.264Z,66.41
2019-04-03T14:22:45.447Z,65.92
2019-04-03T14:23:45.624Z,63.96
2019-04-03T14:24:50.990Z,65.19
2019-04-03T14:25:45.976Z,66.16
2019-04-03T14:26:46.551Z,68.36
2019-04-03T14:27:46.497Z,62.01
2019-04-03T14:28:46.513Z,65.67
2019-04-03T14:29:46.689Z,64.70
2019-04-03T14:30:46.961Z,62.50
2019-04-03T14:31:48.619Z,65.67
2019-04-03T14:32:47.494Z,63.48
2019-04-03T14:33:47.765Z,64.94
2019-04-03T14:34:47.913Z,66.41
2019-04-03T14:35:52.641Z,65.92
2019-04-03T14:36:50.127Z,68.85
2019-04-03T14:37:48.131Z,64.45
2019-04-03T14:38:48.300Z,70.80
2019-04-03T14:39:48.722Z,79.59
2019-04-03T14:40:48.664Z,62.50
2019-04-03T14:41:48.901Z,65.67
2019-04-03T14:42:49.045Z,67.87
2019-04-03T14:43:49.231Z,74.95
2019-04-03T14:44:49.408Z,63.72
2019-04-03T14:45:49.596Z,67.14
2019-04-03T14:46:50.646Z,64.45
2019-04-03T14:47:49.966Z,65.92
2019-04-03T14:48:50.484Z,64.70
2019-04-03T14:49:50.321Z,63.96
2019-04-03T14:50:50.806Z,65.67
2019-04-03T14:51:50.687Z,67.38
2019-04-03T14:52:50.853Z,67.38
2019-04-03T14:53:52.675Z,67.14
2019-04-03T14:54:51.617Z,66.89
2019-04-03T14:55:51.380Z,65.67
2019-04-03T14:56:51.558Z,64.21
2019-04-03T14:57:53.776Z,65.19
2019-04-03T14:58:51.905Z,64.45
2019-04-03T14:59:52.093Z,63.48
2019-04-03T15:00:52.257Z,67.38
2019-04-03T15:01:52.822Z,66.41
2019-04-03T15:02:53.122Z,62.99
2019-04-03T15:03:52.781Z,73.49
2019-04-03T15:04:53.291Z,64.21
2019-04-03T15:05:53.463Z,62.50
2019-04-03T15:07:02.046Z,64.94
2019-04-03T15:07:53.909Z,68.85
2019-04-03T15:08:54.722Z,66.41
2019-04-03T15:09:53.833Z,66.41
2019-04-03T15:10:54.008Z,69.34
2019-04-03T15:11:54.604Z,64.94
2019-04-03T15:12:54.705Z,66.41
2019-04-03T15:13:54.534Z,65.19
2019-04-03T15:14:55.600Z,73.00
2019-04-03T15:15:54.883Z,65.19
2019-04-03T15:16:55.206Z,62.99
2019-04-03T15:17:55.230Z,63.23
2019-04-03T15:18:55.766Z,63.96
2019-04-03T15:19:56.700Z,69.82
2019-04-03T15:20:55.759Z,66.16
2019-04-03T15:21:57.956Z,64.21
2019-04-03T15:22:56.461Z,65.19
2019-04-03T15:23:56.584Z,64.94
2019-04-03T15:24:56.458Z,68.60
2019-04-03T15:25:56.757Z,63.96
2019-04-03T15:26:56.821Z,64.45
2019-04-03T15:27:58.695Z,64.21
2019-04-03T15:28:57.172Z,67.63
2019-04-03T15:29:57.729Z,64.70
2019-04-03T15:30:57.521Z,65.19
2019-04-03T15:31:58.057Z,70.07
2019-04-03T15:32:57.983Z,69.58
2019-04-03T15:33:58.253Z,62.74
2019-04-03T15:34:59.757Z,64.21
2019-04-03T15:35:58.695Z,65.92
2019-04-03T15:36:58.728Z,64.94
2019-04-03T15:37:58.749Z,65.19
2019-04-03T15:38:59.871Z,65.19
2019-04-03T15:39:59.284Z,65.67
2019-04-03T15:40:59.834Z,66.89
2019-04-03T15:41:59.736Z,64.94
2019-04-03T15:42:59.619Z,68.60
2019-04-03T15:43:59.794Z,67.14
2019-04-03T15:44:59.979Z,75.93
2019-04-03T15:46:00.156Z,73.49
2019-04-03T15:47:01.256Z,73.97
2019-04-03T15:48:00.493Z,70.56
2019-04-03T15:49:00.948Z,68.85
2019-04-03T15:50:00.840Z,70.56
2019-04-03T15:51:01.017Z,71.78
2019-04-03T15:52:01.557Z,70.80
2019-04-03T15:53:01.386Z,71.29
2019-04-03T15:54:01.551Z,72.02
2019-04-03T15:55:03.731Z,70.56
2019-04-03T15:56:01.917Z,70.31
2019-04-03T15:57:02.133Z,71.29
2019-04-03T15:58:02.722Z,70.31
2019-04-03T15:59:02.947Z,68.85
2019-04-03T16:00:03.552Z,71.04
2019-04-03T16:01:02.843Z,71.53
2019-04-03T16:02:03.030Z,72.75
2019-04-03T16:03:03.192Z,72.27
2019-04-03T16:04:03.429Z,72.51
2019-04-03T16:05:04.103Z,73.49
2019-04-03T16:06:04.724Z,72.51
2019-04-03T16:07:06.753Z,71.78
2019-04-03T16:08:04.166Z,72.75
2019-04-03T16:09:04.261Z,72.02
2019-04-03T16:10:04.845Z,72.75
2019-04-03T16:11:04.902Z,72.27
2019-04-03T16:12:06.276Z,72.51
2019-04-03T16:13:05.525Z,71.78
2019-04-03T16:14:05.191Z,73.24
2019-04-03T16:15:05.358Z,72.75
2019-04-03T16:16:05.534Z,73.97
2019-04-03T16:17:05.710Z,72.75
2019-04-03T16:18:07.698Z,73.00
2019-04-03T16:19:06.453Z,72.27
2019-04-03T16:20:06.237Z,73.00
2019-04-03T16:21:06.411Z,74.22
2019-04-03T16:22:06.925Z,73.73
2019-04-03T16:23:07.041Z,72.27
2019-04-03T16:24:11.255Z,72.27
2019-04-03T16:25:07.103Z,73.00
2019-04-03T16:26:07.282Z,73.24
2019-04-03T16:27:08.453Z,73.73
2019-04-03T16:28:07.632Z,73.49
2019-04-03T16:29:08.744Z,73.97
2019-04-03T16:30:08.342Z,73.97
2019-04-03T16:31:08.157Z,73.73
2019-04-03T16:32:08.336Z,74.22
2019-04-03T16:33:18.839Z,73.73
2019-04-03T16:34:12.172Z,73.97
2019-04-03T16:35:08.859Z,74.46
2019-04-03T16:36:09.032Z,73.97
2019-04-03T16:37:09.420Z,75.93
2019-04-03T16:38:09.380Z,73.49
2019-04-03T16:39:09.563Z,73.00
2019-04-03T16:40:10.098Z,76.17
2019-04-03T16:41:11.015Z,78.37
2019-04-03T16:42:10.078Z,76.90
2019-04-03T16:43:10.322Z,73.73
2019-04-03T16:44:10.423Z,73.73
2019-04-03T16:45:10.670Z,73.97
2019-04-03T16:46:11.650Z,73.73
2019-04-03T16:47:13.022Z,73.49
2019-04-03T16:48:11.193Z,74.22
2019-04-03T16:49:11.298Z,73.73
2019-04-03T16:50:11.472Z,73.24
2019-04-03T16:51:11.651Z,73.73
2019-04-03T16:52:11.827Z,73.00
2019-04-03T16:53:12.003Z,73.49
2019-04-03T16:54:12.765Z,73.73
2019-04-03T16:55:13.867Z,73.97
2019-04-03T16:56:13.337Z,74.46